Time;durP1;ratioP1;P1;durP2;ratioP2;P2;SDS_P1;SDS_P2;PMS_P1;PMS_P2;Temp;Humidity;BMP_temperature;BMP_pressure;BME280_temperature;BME280_humidity;BME280_pressure;Samples;Min_cycle;Max_cycle;Signal;HPM_P1;HPM_P2
2023/04/05 00:02:23;;;;;;;6.43;3.28;;;4.50;99.90;;;;;;7402010;19;19918;-79
2023/04/05 00:04:56;;;;;;;7.93;3.13;;;4.50;99.90;;;;;;7400811;19;19935;-78
2023/04/05 00:07:27;;;;;;;8.13;3.03;;;3.30;99.90;;;;;;7402659;19;19925;-77
2023/04/05 00:09:57;;;;;;;5.57;2.65;;;2.90;99.90;;;;;;7398735;19;20592;-79
2023/04/05 00:12:26;;;;;;;7.28;3.35;;;4.40;99.90;;;;;;7400845;19;19929;-79
2023/04/05 00:14:55;;;;;;;7.93;3.67;;;3.10;99.90;;;;;;7401099;19;19918;-79
2023/04/05 00:17:24;;;;;;;7.50;3.03;;;3.20;99.90;;;;;;7400252;19;19985;-79
2023/04/05 00:19:55;;;;;;;6.65;3.10;;;3.80;99.90;;;;;;7400380;19;19914;-77
2023/04/05 00:22:30;;;;;;;6.70;3.25;;;3.30;99.90;;;;;;7399583;19;19970;-79
2023/04/05 00:24:59;;;;;;;8.65;3.20;;;3.00;99.90;;;;;;7400001;19;19991;-79
2023/04/05 00:27:28;;;;;;;8.48;3.38;;;3.80;99.90;;;;;;7400560;19;19999;-78
2023/04/05 00:29:58;;;;;;;7.18;3.08;;;2.80;99.90;;;;;;7398812;19;19926;-78
2023/04/05 00:32:27;;;;;;;6.60;3.33;;;4.00;99.90;;;;;;7400228;19;20329;-79
2023/04/05 00:34:56;;;;;;;7.60;3.35;;;3.10;99.90;;;;;;7399752;19;20400;-79
2023/04/05 00:37:28;;;;;;;9.68;3.90;;;3.40;99.90;;;;;;7398175;19;19929;-79
2023/04/05 00:39:57;;;;;;;6.68;3.58;;;3.30;99.90;;;;;;7402431;19;19923;-79
2023/04/05 00:42:26;;;;;;;8.95;3.80;;;3.50;99.90;;;;;;7400635;19;20360;-79
2023/04/05 00:44:55;;;;;;;10.50;3.83;;;4.00;99.90;;;;;;7400090;19;19929;-80
2023/04/05 00:47:24;;;;;;;7.97;3.85;;;3.20;99.90;;;;;;7400538;19;19929;-79
2023/04/05 00:49:53;;;;;;;8.20;3.92;;;3.30;99.90;;;;;;7401465;19;19945;-79
2023/04/05 00:52:23;;;;;;;8.30;3.97;;;2.70;99.90;;;;;;7401640;19;19930;-79
2023/04/05 00:54:55;;;;;;;5.97;3.05;;;2.80;99.90;;;;;;7401555;19;19919;-80
2023/04/05 00:57:28;;;;;;;7.68;3.88;;;3.20;99.90;;;;;;7398762;19;19919;-79
2023/04/05 01:00:00;;;;;;;6.70;3.42;;;3.60;99.90;;;;;;7400937;19;19919;-79
2023/04/05 01:02:38;;;;;;;10.45;4.25;;;3.50;99.90;;;;;;7400399;19;19926;-79
2023/04/05 01:05:21;;;;;;;6.75;3.80;;;3.50;99.90;;;;;;7400447;19;19937;-79
2023/04/05 01:07:56;;;;;;;8.32;3.55;;;3.80;99.90;;;;;;7398324;19;19926;-78
2023/04/05 01:10:33;;;;;;;9.60;4.25;;;2.40;99.90;;;;;;7400598;19;19987;-78
2023/04/05 01:13:02;;;;;;;8.65;4.45;;;3.00;99.90;;;;;;7401261;19;19922;-78
2023/04/05 01:15:32;;;;;;;9.40;4.28;;;3.40;99.90;;;;;;7400934;19;19986;-79
2023/04/05 01:18:02;;;;;;;7.85;3.97;;;3.30;99.90;;;;;;7399437;19;19930;-78
2023/04/05 01:20:36;;;;;;;8.45;4.57;;;3.00;99.90;;;;;;7399641;19;19930;-78
2023/04/05 01:23:32;;;;;;;6.38;3.67;;;2.20;99.90;;;;;;7398919;19;19922;-78
2023/04/05 01:26:44;;;;;;;10.95;4.05;;;2.90;99.90;;;;;;7397309;19;19922;-78
2023/04/05 01:29:45;;;;;;;8.40;3.80;;;2.10;99.90;;;;;;7401405;19;19918;-79
2023/04/05 01:32:18;;;;;;;;;;;2.90;99.90;;;;;;7402592;19;19929;-79
2023/04/05 01:34:52;;;;;;;8.55;3.22;;;1.90;99.90;;;;;;7399884;19;20370;-79
2023/04/05 01:37:28;;;;;;;8.20;3.58;;;2.30;99.90;;;;;;7398673;19;19922;-79
2023/04/05 01:39:57;;;;;;;10.70;3.95;;;;;;;;;;7398503;19;20315;-79
2023/04/05 01:42:28;;;;;;;9.68;4.25;;;2.20;99.90;;;;;;7405200;19;19918;-79
2023/04/05 01:45:00;;;;;;;5.78;3.50;;;3.30;99.90;;;;;;7407025;19;19939;-78
2023/04/05 01:47:38;;;;;;;8.05;4.00;;;2.10;99.90;;;;;;7407017;19;19922;-78
2023/04/05 01:50:09;;;;;;;6.63;3.95;;;3.00;99.90;;;;;;7403391;19;20265;-78
2023/04/05 01:52:41;;;;;;;8.18;3.45;;;3.20;99.90;;;;;;7406756;19;19915;-79
2023/04/05 01:55:19;;;;;;;11.10;4.40;;;2.90;99.90;;;;;;7405229;19;19914;-79
2023/04/05 01:57:49;;;;;;;8.52;4.28;;;2.60;99.90;;;;;;7406855;19;19926;-79
2023/04/05 02:00:21;;;;;;;6.55;3.75;;;2.30;99.90;;;;;;7408031;19;19919;-78
2023/04/05 02:02:50;;;;;;;8.45;4.20;;;2.60;99.90;;;;;;7407659;19;19933;-78
2023/04/05 02:05:19;;;;;;;7.00;3.45;;;;;;;;;;7407476;19;19918;-79
2023/04/05 02:07:48;;;;;;;11.80;4.38;;;2.90;99.90;;;;;;7407051;19;20002;-79
2023/04/05 02:10:17;;;;;;;8.23;4.13;;;1.90;99.90;;;;;;7405753;19;19937;-79
2023/04/05 02:12:46;;;;;;;7.80;3.90;;;2.50;99.90;;;;;;7405340;19;19926;-79
2023/04/05 02:15:16;;;;;;;8.73;3.95;;;2.70;99.90;;;;;;7404828;19;19930;-78
2023/04/05 02:17:54;;;;;;;7.10;3.90;;;1.70;99.90;;;;;;7402943;19;19910;-78
2023/04/05 02:20:24;;;;;;;8.50;4.05;;;;;;;;;;7405956;19;19951;-79
2023/04/05 02:22:53;;;;;;;9.70;3.97;;;2.20;99.90;;;;;;7408115;19;19939;-79
2023/04/05 02:25:22;;;;;;;7.57;4.63;;;2.50;99.90;;;;;;7405282;19;19923;-79
2023/04/05 02:27:51;;;;;;;8.77;4.35;;;1.40;99.90;;;;;;7405964;19;19961;-78
2023/04/05 02:30:30;;;;;;;9.00;4.38;;;2.30;99.90;;;;;;7404819;19;19929;-79
2023/04/05 02:33:02;;;;;;;8.90;3.95;;;2.00;99.90;;;;;;7403122;19;20352;-79
2023/04/05 02:35:31;;;;;;;8.23;4.65;;;2.80;99.90;;;;;;7404652;19;20304;-78
2023/04/05 02:38:01;;;;;;;11.80;4.82;;;3.00;99.90;;;;;;7406092;19;19918;-78
2023/04/05 02:40:30;;;;;;;8.20;3.92;;;1.60;99.90;;;;;;7406009;19;19922;-78
2023/04/05 02:43:01;;;;;;;9.43;4.60;;;2.80;99.90;;;;;;7404941;19;19982;-78
2023/04/05 02:45:30;;;;;;;9.25;4.93;;;2.10;99.90;;;;;;7404139;19;19922;-79
2023/04/05 02:48:02;;;;;;;9.60;4.13;;;2.10;99.90;;;;;;7405168;19;19922;-79
2023/04/05 02:50:31;;;;;;;7.85;4.15;;;1.60;99.90;;;;;;7403757;19;19922;-79
2023/04/05 02:53:01;;;;;;;8.80;4.47;;;;;;;;;;7402589;19;19923;-79
2023/04/05 02:55:32;;;;;;;8.20;4.35;;;1.40;99.90;;;;;;7404304;19;19942;-80
2023/04/05 02:58:02;;;;;;;8.30;4.25;;;1.50;99.90;;;;;;7402743;19;19939;-77
2023/04/05 03:00:31;;;;;;;6.68;4.57;;;1.80;99.90;;;;;;7405002;19;19952;-78
2023/04/05 03:03:03;;;;;;;6.75;4.43;;;2.60;99.90;;;;;;7405179;19;19918;-78
2023/04/05 03:05:32;;;;;;;10.95;5.47;;;1.60;99.90;;;;;;7404393;19;19918;-78
2023/04/05 03:08:01;;;;;;;7.03;4.18;;;2.50;99.90;;;;;;7403713;19;19930;-79
2023/04/05 03:10:33;;;;;;;9.32;4.68;;;1.30;99.90;;;;;;7405121;19;19986;-78
2023/04/05 03:13:02;;;;;;;;;;;2.10;99.90;;;;;;7407002;19;20255;-78
2023/04/05 03:15:33;;;;;;;9.40;4.38;;;1.80;99.90;;;;;;7405696;19;19934;-78
2023/04/05 03:18:05;;;;;;;10.57;4.75;;;1.10;99.90;;;;;;7404342;19;19927;-78
2023/04/05 03:20:38;;;;;;;9.77;4.53;;;1.60;99.90;;;;;;7401707;19;19922;-78
2023/04/05 03:23:09;;;;;;;8.27;3.78;;;2.10;99.90;;;;;;7404002;19;19939;-78
2023/04/05 03:25:39;;;;;;;10.65;4.93;;;2.40;99.90;;;;;;7402800;19;20329;-78
2023/04/05 03:28:08;;;;;;;10.55;4.85;;;1.80;99.90;;;;;;7405563;19;19922;-78
2023/04/05 03:30:38;;;;;;;12.40;4.75;;;2.10;99.90;;;;;;7404414;19;19926;-78
2023/04/05 03:33:10;;;;;;;9.57;4.57;;;1.10;99.90;;;;;;7404540;19;19915;-78
2023/04/05 03:35:41;;;;;;;10.57;4.45;;;1.80;99.90;;;;;;7402890;19;20379;-78
2023/04/05 03:38:11;;;;;;;7.55;4.20;;;2.20;99.90;;;;;;7402500;19;20336;-78
2023/04/05 03:40:40;;;;;;;9.13;4.35;;;2.40;99.90;;;;;;7402180;19;19926;-78
2023/04/05 03:43:10;;;;;;;9.25;4.15;;;1.40;99.90;;;;;;7402718;19;19930;-78
2023/04/05 03:45:39;;;;;;;9.05;4.30;;;1.70;99.90;;;;;;7404476;19;20325;-78
2023/04/05 03:48:10;;;;;;;7.88;4.10;;;1.10;99.90;;;;;;7401985;19;20360;-78
2023/04/05 03:50:39;;;;;;;9.80;4.13;;;2.00;99.90;;;;;;7402528;19;19934;-78
2023/04/05 03:53:09;;;;;;;8.80;4.55;;;;;;;;;;7404727;19;19926;-78
2023/04/05 03:55:38;;;;;;;8.93;4.60;;;1.40;99.90;;;;;;7403832;19;19926;-78
2023/04/05 03:58:07;;;;;;;13.30;4.38;;;1.60;99.90;;;;;;7402386;19;19918;-78
2023/04/05 04:00:37;;;;;;;10.45;4.35;;;;;;;;;;7402897;19;19944;-77
2023/04/05 04:03:06;;;;;;;7.22;4.70;;;1.70;99.90;;;;;;7401536;19;19922;-78
2023/04/05 04:05:37;;;;;;;8.27;4.38;;;1.90;99.90;;;;;;7402828;19;19914;-78
2023/04/05 04:08:12;;;;;;;8.40;4.20;;;1.10;99.90;;;;;;7405435;19;19914;-78
2023/04/05 04:10:41;;;;;;;9.60;4.43;;;1.40;99.90;;;;;;7404466;19;19994;-78
2023/04/05 04:13:10;;;;;;;9.35;4.88;;;1.40;99.90;;;;;;7403208;19;19923;-78
2023/04/05 04:15:42;;;;;;;;;;;1.50;99.90;;;;;;7405923;19;19993;-78
2023/04/05 04:18:11;;;;;;;6.82;4.35;;;2.20;99.90;;;;;;7400067;19;19917;-78
2023/04/05 04:20:43;;;;;;;9.38;4.75;;;1.40;99.90;;;;;;7401233;19;19988;-78
2023/04/05 04:23:13;;;;;;;10.20;4.95;;;;;;;;;;7400466;19;19919;-78
2023/04/05 04:25:44;;;;;;;9.27;4.88;;;1.80;99.90;;;;;;7402788;19;20341;-78
2023/04/05 04:28:18;;;;;;;9.07;4.57;;;1.00;99.90;;;;;;7402453;19;19991;-80
2023/04/05 04:30:47;;;;;;;16.80;4.70;;;2.00;99.90;;;;;;7404525;19;19922;-80
2023/04/05 04:33:18;;;;;;;10.38;4.78;;;0.90;99.90;;;;;;7402015;19;19919;-78
2023/04/05 04:35:53;;;;;;;8.15;4.25;;;1.40;99.90;;;;;;7402810;19;19942;-78
2023/04/05 04:38:24;;;;;;;10.70;5.15;;;2.20;99.90;;;;;;7403966;19;20300;-78
2023/04/05 04:40:57;;;;;;;9.65;4.93;;;1.70;99.90;;;;;;7402898;19;20380;-78
2023/04/05 04:43:28;;;;;;;8.40;4.25;;;1.70;99.90;;;;;;7402316;19;20289;-78
2023/04/05 04:45:57;;;;;;;8.30;4.90;;;;;;;;;;7402363;19;19922;-78
2023/04/05 04:48:32;;;;;;;9.98;4.90;;;1.60;99.90;;;;;;7400200;19;19922;-79
2023/04/05 04:51:04;;;;;;;7.38;4.35;;;1.00;99.90;;;;;;7401028;19;20613;-76
2023/04/05 04:53:34;;;;;;;10.35;4.55;;;;;;;;;;7401705;19;19929;-76
2023/04/05 04:56:03;;;;;;;10.40;5.13;;;1.30;99.90;;;;;;7399722;19;19919;-76
2023/04/05 04:58:33;;;;;;;8.00;4.82;;;0.70;99.90;;;;;;7403090;19;19926;-77
2023/04/05 05:01:01;;;;;;;8.43;4.47;;;0.90;99.90;;;;;;7400706;19;19925;-76
2023/04/05 05:03:31;;;;;;;8.70;5.03;;;0.70;99.90;;;;;;7401023;19;19919;-77
2023/04/05 05:06:03;;;;;;;8.55;4.20;;;0.70;99.90;;;;;;7400295;19;19938;-76
2023/04/05 05:08:32;;;;;;;11.15;6.03;;;0.60;99.90;;;;;;7402139;19;19989;-77
2023/04/05 05:11:02;;;;;;;7.43;4.53;;;0.80;99.90;;;;;;7401240;19;19924;-77
2023/04/05 05:13:51;;;;;;;8.90;5.35;;;0.60;99.90;;;;;;7407515;19;19950;-77
2023/04/05 05:16:20;;;;;;;8.48;4.07;;;1.80;99.90;;;;;;7405982;19;19922;-76
2023/04/05 05:18:49;;;;;;;9.43;5.65;;;1.00;99.90;;;;;;7404582;19;20353;-76
2023/04/05 05:21:21;;;;;;;10.57;5.38;;;1.00;99.90;;;;;;7406699;19;19927;-77
2023/04/05 05:23:50;;;;;;;11.75;5.00;;;0.90;99.90;;;;;;7405750;19;20256;-78
2023/04/05 05:26:39;;;;;;;9.40;4.55;;;;;;;;;;7403769;19;19952;-77
2023/04/05 05:29:08;;;;;;;10.98;5.15;;;0.70;99.90;;;;;;7408044;19;19922;-78
2023/04/05 05:31:38;;;;;;;9.20;5.20;;;0.60;99.90;;;;;;7405412;19;19926;-77
2023/04/05 05:34:08;;;;;;;8.63;4.65;;;2.00;99.90;;;;;;7405878;19;20395;-78
2023/04/05 05:36:40;;;;;;;10.60;5.38;;;1.80;99.90;;;;;;7405973;19;20340;-78
2023/04/05 05:39:09;;;;;;;7.93;4.93;;;0.90;99.90;;;;;;7406050;19;19919;-77
2023/04/05 05:41:46;;;;;;;7.88;4.70;;;1.50;99.90;;;;;;7406575;19;19928;-77
2023/04/05 05:44:16;;;;;;;11.30;5.15;;;2.20;99.90;;;;;;7406694;19;20265;-77
2023/04/05 05:46:45;;;;;;;11.63;5.13;;;0.80;99.90;;;;;;7406980;19;19927;-77
2023/04/05 05:49:16;;;;;;;11.40;4.60;;;0.70;99.90;;;;;;7405115;19;19927;-77
2023/04/05 05:51:48;;;;;;;9.40;5.40;;;0.70;99.90;;;;;;7403104;19;19918;-78
2023/04/05 05:54:17;;;;;;;9.05;4.30;;;2.00;99.90;;;;;;7405579;19;19922;-77
2023/04/05 05:56:46;;;;;;;10.48;4.95;;;2.10;99.90;;;;;;7405607;19;20416;-77
2023/04/05 05:59:15;;;;;;;8.98;5.05;;;0.80;99.90;;;;;;7408090;19;19927;-78
2023/04/05 06:01:46;;;;;;;13.18;5.55;;;0.90;99.90;;;;;;7406076;19;19930;-79
2023/04/05 06:04:15;;;;;;;10.90;5.13;;;1.90;99.90;;;;;;7404332;19;19919;-78
2023/04/05 06:06:46;;;;;;;10.02;5.55;;;;;;;;;;7403951;19;20455;-79
2023/04/05 06:09:18;;;;;;;11.38;4.82;;;1.30;99.90;;;;;;7405931;19;19923;-78
2023/04/05 06:11:47;;;;;;;10.15;5.07;;;1.50;99.90;;;;;;7404100;19;19918;-78
2023/04/05 06:14:15;;;;;;;8.88;4.63;;;1.70;99.90;;;;;;7405564;19;19923;-78
2023/04/05 06:16:45;;;;;;;10.02;4.88;;;2.30;99.90;;;;;;7403342;19;19929;-79
2023/04/05 06:19:13;;;;;;;11.15;5.05;;;2.00;99.90;;;;;;7404719;19;19922;-79
2023/04/05 06:21:42;;;;;;;7.95;4.72;;;2.40;99.90;;;;;;7404915;19;19915;-78
2023/04/05 06:24:13;;;;;;;8.27;4.93;;;;;;;;;;7401217;19;19922;-75
2023/04/05 06:26:45;;;;;;;7.57;4.88;;;1.40;99.90;;;;;;7403406;19;20270;-76
2023/04/05 06:29:14;;;;;;;8.20;4.72;;;1.40;99.90;;;;;;7396646;19;19917;-75
2023/04/05 06:31:45;;;;;;;9.10;4.57;;;1.70;99.90;;;;;;7402755;19;19919;-75
2023/04/05 06:34:14;;;;;;;10.10;4.45;;;2.40;99.90;;;;;;7404132;19;19911;-75
2023/04/05 06:36:43;;;;;;;7.57;4.32;;;2.00;99.90;;;;;;7404467;19;19911;-75
2023/04/05 06:39:13;;;;;;;7.22;4.15;;;1.60;99.90;;;;;;7404011;19;19914;-75
2023/04/05 06:41:42;;;;;;;10.63;4.43;;;;;;;;;;7403703;19;19979;-75
2023/04/05 06:44:13;;;;;;;10.10;3.85;;;2.40;99.90;;;;;;7403778;19;19929;-75
2023/04/05 06:46:43;;;;;;;8.52;4.22;;;;;;;;;;7405911;19;19953;-75
2023/04/05 06:49:15;;;;;;;7.43;4.55;;;2.60;99.90;;;;;;7405374;19;19915;-76
2023/04/05 06:51:45;;;;;;;8.13;4.20;;;2.10;99.90;;;;;;7403896;19;19915;-75
2023/04/05 06:54:14;;;;;;;8.48;4.22;;;1.80;99.90;;;;;;7399735;19;19918;-75
2023/04/05 06:56:43;;;;;;;6.60;4.18;;;2.10;99.90;;;;;;7403137;19;19991;-75
2023/04/05 06:59:14;;;;;;;6.38;3.92;;;2.70;99.90;;;;;;7403589;19;19929;-75
2023/04/05 07:01:43;;;;;;;10.25;4.78;;;2.60;99.90;;;;;;7403962;19;19979;-75
2023/04/05 07:04:12;;;;;;;7.10;4.15;;;2.10;99.90;;;;;;7402698;19;19933;-76
2023/04/05 07:06:41;;;;;;;9.38;4.13;;;1.70;99.90;;;;;;7399028;19;19943;-76
2023/04/05 07:09:10;;;;;;;13.50;4.55;;;2.70;99.90;;;;;;7402942;19;19918;-75
2023/04/05 07:11:39;;;;;;;10.30;4.57;;;2.50;99.90;;;;;;7403325;19;19990;-76
2023/04/05 07:14:08;;;;;;;10.30;4.38;;;1.80;99.90;;;;;;7399223;19;19926;-76
2023/04/05 07:16:40;;;;;;;8.18;4.18;;;3.30;99.90;;;;;;7403578;19;20351;-75
2023/04/05 07:19:09;;;;;;;6.60;4.10;;;;;;;;;;7400520;19;19962;-75
2023/04/05 07:21:38;;;;;;;8.50;3.95;;;2.50;99.90;;;;;;7405950;19;19986;-74
2023/04/05 07:24:07;;;;;;;8.15;4.07;;;2.60;99.90;;;;;;7400556;19;19914;-75
2023/04/05 07:26:37;;;;;;;9.25;4.07;;;3.10;99.90;;;;;;7404407;19;20344;-75
2023/04/05 07:29:07;;;;;;;14.85;3.47;;;2.40;99.90;;;;;;7402028;19;19931;-74
2023/04/05 07:31:39;;;;;;;8.20;4.05;;;3.10;99.90;;;;;;7399610;19;19933;-75
2023/04/05 07:34:08;;;;;;;5.72;3.30;;;3.60;99.90;;;;;;7402192;19;19929;-74
2023/04/05 07:36:37;;;;;;;5.93;3.55;;;3.20;99.90;;;;;;7404001;19;20354;-75
2023/04/05 07:39:07;;;;;;;6.68;3.50;;;2.50;99.90;;;;;;7403171;19;19927;-74
2023/04/05 07:41:37;;;;;;;4.35;2.67;;;3.80;99.90;;;;;;7401915;19;19914;-74
2023/04/05 07:44:06;;;;;;;6.30;3.00;;;3.70;99.90;;;;;;7405073;19;19938;-74
2023/04/05 07:46:37;;;;;;;8.63;3.33;;;2.70;99.90;;;;;;7403092;19;19923;-75
2023/04/05 07:49:08;;;;;;;5.80;3.17;;;3.80;99.90;;;;;;7403194;19;19918;-76
2023/04/05 07:51:38;;;;;;;5.85;3.47;;;4.20;99.90;;;;;;7402191;19;19926;-75
2023/04/05 07:54:08;;;;;;;4.88;3.60;;;3.00;99.90;;;;;;7398099;19;19911;-75
2023/04/05 07:56:39;;;;;;;6.53;2.97;;;4.00;99.90;;;;;;7404213;19;19926;-75
2023/04/05 07:59:08;;;;;;;7.07;3.13;;;4.20;99.90;;;;;;7399503;19;19919;-76
2023/04/05 08:01:37;;;;;;;8.27;3.78;;;3.30;99.90;;;;;;7403203;19;19922;-76
2023/04/05 08:04:08;;;;;;;5.13;3.20;;;3.80;99.90;;;;;;7402357;19;20545;-76
2023/04/05 08:06:37;;;;;;;7.80;3.10;;;3.00;99.90;;;;;;7400911;19;19930;-76
2023/04/05 08:09:07;;;;;;;6.65;2.63;;;3.10;99.90;;;;;;7399691;19;19922;-76
2023/04/05 08:11:37;;;;;;;5.97;3.22;;;2.90;99.90;;;;;;7397665;19;20348;-75
2023/04/05 08:14:06;;;;;;;7.10;3.22;;;3.80;99.90;;;;;;7393030;19;19922;-75
2023/04/05 08:16:35;;;;;;;6.85;3.15;;;3.10;99.90;;;;;;7393782;19;19922;-75
2023/04/05 08:19:04;;;;;;;7.57;3.40;;;3.90;99.90;;;;;;7391641;19;19919;-75
2023/04/05 08:21:35;;;;;;;4.85;2.75;;;3.50;99.90;;;;;;7394687;19;19990;-75
2023/04/05 08:24:05;;;;;;;4.30;2.70;;;4.60;99.90;;;;;;7393492;19;20525;-75
2023/04/05 08:26:33;;;;;;;6.30;2.95;;;3.90;99.90;;;;;;7399009;19;19938;-75
2023/04/05 08:29:02;;;;;;;5.53;3.00;;;4.00;99.90;;;;;;7403020;19;19926;-75
2023/04/05 08:31:32;;;;;;;5.82;2.92;;;3.70;99.90;;;;;;7400860;19;19926;-75
2023/04/05 08:34:01;;;;;;;6.85;2.85;;;4.90;99.90;;;;;;7400056;19;19922;-75
2023/04/05 08:36:31;;;;;;;5.40;2.53;;;4.30;99.90;;;;;;7399281;19;19927;-75
2023/04/05 08:39:02;;;;;;;6.70;2.53;;;4.70;99.90;;;;;;7401536;19;19978;-75
2023/04/05 08:41:36;;;;;;;5.43;2.58;;;4.40;99.90;;;;;;7401048;19;19922;-75
2023/04/05 08:44:07;;;;;;;5.38;2.28;;;5.60;99.90;;;;;;7400636;19;19932;-75
2023/04/05 08:46:36;;;;;;;4.00;2.53;;;4.90;99.90;;;;;;7401685;19;19927;-75
2023/04/05 08:49:07;;;;;;;6.60;2.10;;;5.00;99.90;;;;;;7401121;19;19943;-75
2023/04/05 08:51:39;;;;;;;5.05;2.30;;;5.90;99.90;;;;;;7398134;19;19914;-75
2023/04/05 08:54:11;;;;;;;6.43;2.75;;;5.10;99.90;;;;;;7398714;19;19927;-75
2023/04/05 08:56:41;;;;;;;4.85;2.33;;;4.90;99.90;;;;;;7399647;19;19919;-75
2023/04/05 08:59:12;;;;;;;3.63;2.30;;;5.30;99.90;;;;;;7401560;19;19943;-75
2023/04/05 09:01:47;;;;;;;6.93;1.95;;;5.20;99.90;;;;;;7400535;19;19982;-75
2023/04/05 09:04:20;;;;;;;3.90;2.10;;;5.40;99.90;;;;;;7402414;19;20285;-75
2023/04/05 09:06:51;;;;;;;4.20;2.50;;;5.70;99.90;;;;;;7394918;19;20459;-76
2023/04/05 09:09:22;;;;;;;5.90;2.22;;;5.80;99.90;;;;;;7397102;19;19942;-75
2023/04/05 09:11:52;;;;;;;3.28;2.05;;;5.70;99.90;;;;;;7399882;19;19922;-75
2023/04/05 09:14:21;;;;;;;4.43;2.53;;;6.00;99.90;;;;;;7397146;19;19935;-75
2023/04/05 09:16:50;;;;;;;3.70;1.58;;;6.60;99.90;;;;;;7399297;19;19921;-75
2023/04/05 09:19:19;;;;;;;7.82;2.00;;;6.00;99.90;;;;;;7398127;19;19926;-75
2023/04/05 09:22:05;;;;;;;5.18;1.90;;;6.10;99.90;;;;;;7398635;19;19930;-75
2023/04/05 09:24:39;;;;;;;4.35;1.70;;;6.20;99.90;;;;;;7398493;19;19936;-75
2023/04/05 09:27:10;;;;;;;4.30;1.80;;;6.20;99.90;;;;;;7399068;19;20308;-75
2023/04/05 09:29:40;;;;;;;3.50;1.60;;;6.20;99.90;;;;;;7401199;19;19970;-75
2023/04/05 09:32:11;;;;;;;3.28;1.58;;;6.50;99.90;;;;;;7400502;19;19919;-74
2023/04/05 09:34:41;;;;;;;3.47;1.90;;;6.60;99.90;;;;;;7396906;19;20312;-75
2023/04/05 09:37:20;;;;;;;6.22;1.95;;;6.70;99.90;;;;;;7397460;19;19922;-75
2023/04/05 09:39:53;;;;;;;3.42;1.60;;;6.70;99.90;;;;;;7398442;19;19968;-75
2023/04/05 09:42:24;;;;;;;4.93;1.60;;;6.80;99.90;;;;;;7397653;19;20357;-75
2023/04/05 09:45:00;;;;;;;2.33;1.20;;;6.80;99.90;;;;;;7399045;19;20260;-75
2023/04/05 09:47:31;;;;;;;3.78;1.45;;;6.90;99.90;;;;;;7400402;19;20246;-76
2023/04/05 09:50:00;;;;;;;4.53;1.52;;;6.90;99.90;;;;;;7398298;19;20389;-77
2023/04/05 09:52:31;;;;;;;2.65;1.10;;;7.50;99.90;;;;;;7397881;19;19933;-75
2023/04/05 09:55:05;;;;;;;4.32;1.50;;;7.80;99.90;;;;;;7400838;19;19921;-75
2023/04/05 09:57:38;;;;;;;2.10;1.10;;;7.10;99.90;;;;;;7397442;19;20359;-75
2023/04/05 10:00:09;;;;;;;4.28;1.80;;;7.10;99.90;;;;;;7398421;19;19922;-75
2023/04/05 10:02:39;;;;;;;5.60;1.60;;;7.20;99.90;;;;;;7401970;19;20392;-75
2023/04/05 10:05:11;;;;;;;3.70;2.20;;;7.40;99.90;;;;;;7405265;19;19925;-75
2023/04/05 10:07:40;;;;;;;3.28;2.17;;;7.40;99.90;;;;;;7401493;19;19930;-75
2023/04/05 10:10:15;;;;;;;3.45;2.22;;;7.30;99.90;;;;;;7406390;19;19915;-73
2023/04/05 10:12:45;;;;;;;4.82;2.38;;;7.40;99.90;;;;;;7405244;19;20396;-74
2023/04/05 10:15:14;;;;;;;5.03;2.10;;;7.50;99.90;;;;;;7405258;19;19926;-73
2023/04/05 10:17:50;;;;;;;3.03;2.20;;;7.40;99.90;;;;;;7405005;19;19922;-73
2023/04/05 10:20:21;;;;;;;4.18;2.55;;;7.60;99.90;;;;;;7403757;19;19921;-74
2023/04/05 10:23:03;;;;;;;4.38;2.45;;;7.70;99.90;;;;;;7405604;19;19918;-74
2023/04/05 10:25:48;;;;;;;4.60;2.50;;;7.70;99.90;;;;;;7404818;19;20349;-73
2023/04/05 10:28:23;;;;;;;3.75;2.35;;;7.80;99.90;;;;;;7405604;19;19927;-73
2023/04/05 10:30:54;;;;;;;7.00;2.90;;;8.40;99.90;;;;;;7404589;19;19933;-72
2023/04/05 10:33:27;;;;;;;3.88;2.47;;;8.10;99.90;;;;;;7404954;19;20020;-72
2023/04/05 10:36:08;;;;;;;4.20;2.30;;;8.00;99.90;;;;;;7404672;19;19919;-72
2023/04/05 10:38:47;;;;;;;3.50;2.30;;;8.10;99.90;;;;;;7403850;19;19922;-73
2023/04/05 10:41:18;;;;;;;5.03;2.85;;;8.30;99.90;;;;;;7403462;19;20280;-72
2023/04/05 10:43:48;;;;;;;7.45;2.65;;;8.40;99.90;;;;;;7404818;19;19933;-73
2023/04/05 10:46:22;;;;;;;5.43;2.75;;;8.40;99.90;;;;;;7404690;19;19923;-72
2023/04/05 10:49:00;;;;;;;3.85;2.67;;;8.50;99.90;;;;;;7403973;19;19925;-73
2023/04/05 10:51:30;;;;;;;7.25;2.80;;;8.50;99.90;;;;;;7404315;19;19922;-73
2023/04/05 10:53:59;;;;;;;3.97;2.42;;;8.60;99.90;;;;;;7403206;19;20637;-72
2023/04/05 10:56:31;;;;;;;5.20;2.38;;;8.60;99.90;;;;;;7403991;19;19947;-72
2023/04/05 10:59:01;;;;;;;3.53;2.13;;;8.60;99.90;;;;;;7403948;19;19925;-73
2023/04/05 11:01:30;;;;;;;3.15;2.28;;;8.60;99.90;;;;;;7403503;19;19922;-73
2023/04/05 11:04:13;;;;;;;3.50;2.03;;;8.60;99.90;;;;;;7405400;19;19926;-77
2023/04/05 11:06:42;;;;;;;5.35;2.40;;;8.60;99.90;;;;;;7405790;19;19923;-75
2023/04/05 11:09:14;;;;;;;4.75;2.30;;;8.80;99.90;;;;;;7404593;19;20341;-78
2023/04/05 11:11:47;;;;;;;4.45;2.20;;;8.80;99.90;;;;;;7402560;19;19988;-75
2023/04/05 11:14:24;;;;;;;5.90;2.55;;;8.60;99.90;;;;;;7400285;19;19923;-77
2023/04/05 11:16:55;;;;;;;6.15;2.85;;;8.80;99.90;;;;;;7402916;19;19922;-75
2023/04/05 11:19:51;;;;;;;4.38;2.58;;;8.90;99.90;;;;;;7401358;19;19923;-77
2023/04/05 11:22:28;;;;;;;4.88;2.55;;;9.20;99.90;;;;;;7403749;19;20070;-77
2023/04/05 11:25:00;;;;;;;5.32;2.47;;;9.30;99.90;;;;;;7402679;19;19921;-76
2023/04/05 11:27:36;;;;;;;4.22;2.15;;;9.30;99.90;;;;;;7402686;19;19918;-76
2023/04/05 11:30:07;;;;;;;4.20;2.58;;;9.50;99.90;;;;;;7400716;19;19968;-76
2023/04/05 11:32:43;;;;;;;4.63;2.42;;;11.20;99.90;;;;;;7403139;19;19927;-76
2023/04/05 11:35:16;;;;;;;3.95;2.40;;;9.80;99.90;;;;;;7400699;19;19944;-76
2023/04/05 11:38:23;;;;;;;4.85;2.45;;;9.90;99.90;;;;;;7400278;19;19954;-75
2023/04/05 11:41:00;;;;;;;7.00;3.25;;;10.00;99.90;;;;;;7401193;19;19962;-75
2023/04/05 11:43:33;;;;;;;3.80;2.40;;;10.00;99.90;;;;;;7410753;19;19925;-76
2023/04/05 11:46:05;;;;;;;4.97;2.42;;;10.20;99.90;;;;;;7403112;19;19930;-76
2023/04/05 11:48:35;;;;;;;4.85;2.70;;;10.40;99.90;;;;;;7404421;19;20356;-76
2023/04/05 11:51:11;;;;;;;6.25;2.53;;;10.40;99.90;;;;;;7396544;19;19934;-76
2023/04/05 11:53:40;;;;;;;5.35;3.20;;;10.60;99.90;;;;;;7397587;19;19918;-76
2023/04/05 11:56:12;;;;;;;4.88;2.45;;;10.90;99.90;;;;;;7401956;19;19934;-76
2023/04/05 11:58:44;;;;;;;;;;;10.70;99.90;;;;;;7403977;19;19927;-76
2023/04/05 12:01:13;;;;;;;3.80;2.17;;;10.80;99.60;;;;;;7402024;19;19922;-76
2023/04/05 12:03:42;;;;;;;3.47;2.30;;;10.80;99.10;;;;;;7401413;19;19922;-76
2023/04/05 12:06:11;;;;;;;5.88;2.60;;;10.90;99.90;;;;;;7402750;19;19914;-75
2023/04/05 12:08:42;;;;;;;3.90;2.75;;;10.90;99.90;;;;;;7403625;19;19933;-76
2023/04/05 12:11:12;;;;;;;4.88;2.47;;;10.90;99.90;;;;;;7401311;19;19936;-76
2023/04/05 12:13:44;;;;;;;6.85;2.78;;;10.60;99.40;;;;;;7401947;19;19922;-75
2023/04/05 12:16:13;;;;;;;4.97;2.75;;;10.70;99.80;;;;;;7402222;19;19922;-76
2023/04/05 12:18:42;;;;;;;3.58;2.42;;;10.70;99.90;;;;;;7399787;19;19932;-77
2023/04/05 12:21:11;;;;;;;4.70;2.60;;;10.80;99.90;;;;;;7401542;19;19930;-76
2023/04/05 12:23:40;;;;;;;5.20;2.70;;;11.00;99.90;;;;;;7396722;19;19943;-76
2023/04/05 12:26:10;;;;;;;6.47;2.92;;;11.00;99.90;;;;;;7399304;19;20274;-76
2023/04/05 12:28:55;;;;;;;5.78;2.88;;;13.50;99.90;;;;;;7402237;19;20339;-76
2023/04/05 12:31:37;;;;;;;5.30;2.65;;;11.30;99.90;;;;;;7402712;19;19923;-76
2023/04/05 12:34:06;;;;;;;5.60;2.45;;;11.50;99.90;;;;;;7398654;19;20349;-76
2023/04/05 12:36:35;;;;;;;4.93;2.72;;;11.70;99.90;;;;;;7395485;19;20255;-76
2023/04/05 12:39:10;;;;;;;4.72;2.40;;;11.60;99.90;;;;;;7393376;19;19926;-76
2023/04/05 12:41:39;;;;;;;4.80;2.58;;;11.80;99.20;;;;;;7399524;19;19934;-76
2023/04/05 12:44:13;;;;;;;4.03;2.42;;;11.70;98.50;;;;;;7402100;19;19918;-76
2023/04/05 12:46:43;;;;;;;3.40;1.95;;;11.80;98.00;;;;;;7398472;19;19914;-76
2023/04/05 12:49:13;;;;;;;5.10;2.50;;;11.50;97.20;;;;;;7399899;19;19910;-76
2023/04/05 12:51:44;;;;;;;5.28;2.92;;;11.50;97.30;;;;;;7401819;19;19923;-76
2023/04/05 12:54:15;;;;;;;6.50;2.70;;;11.70;97.80;;;;;;7399196;19;19943;-76
2023/04/05 12:56:44;;;;;;;4.20;2.35;;;11.40;96.90;;;;;;7400549;19;19922;-76
2023/04/05 12:59:16;;;;;;;5.82;2.42;;;11.60;98.40;;;;;;7399682;19;19954;-76
2023/04/05 13:01:44;;;;;;;4.28;2.28;;;11.90;98.90;;;;;;7395962;19;19919;-76
2023/04/05 13:04:13;;;;;;;3.58;2.40;;;12.00;98.80;;;;;;7399851;19;19926;-76
2023/04/05 13:06:42;;;;;;;3.75;2.20;;;12.20;98.70;;;;;;7399119;19;19982;-76
2023/04/05 13:09:11;;;;;;;2.88;2.15;;;12.30;98.40;;;;;;7398141;19;20364;-76
2023/04/05 13:11:40;;;;;;;3.33;1.98;;;12.40;98.60;;;;;;7401150;19;19923;-77
2023/04/05 13:14:09;;;;;;;3.85;2.47;;;12.50;97.60;;;;;;7398592;19;19929;-76
2023/04/05 13:16:40;;;;;;;4.65;2.72;;;12.60;97.60;;;;;;7398599;19;19922;-76
2023/04/05 13:19:09;;;;;;;5.05;2.90;;;12.60;97.10;;;;;;7398600;19;20214;-76
2023/04/05 13:21:38;;;;;;;3.63;2.33;;;12.60;97.10;;;;;;7399244;19;19936;-77
2023/04/05 13:24:07;;;;;;;4.38;2.03;;;12.60;96.50;;;;;;7397555;19;19922;-76